Princimar Pride — V7XL5 — position and weather

sailwx.info

Track history (hours):
 
Tides and Currents Weather Stations Pressure Air Temp Water Temp Dewpoint Dewpoint Depression Visibility Wind Speed Wind Dir Waves Ship Positions

Princimar Pride

Last reported at 2015-Oct-15 05:32 UTC. Time now 2016-Jul-28 00:52 UTC.
Position N 33°44' W 118°13'.
Warning: this ship's position is months out of date.

Length 274 m; draft 9 m.

Type: Ship. MMSI: 538004509.

Date/timePositionNaut miles runAvg speedWind from/ knotsBaromVisibWave heightAir tempDewpointWater temp
2015-Oct-15 05:32N 33°44' W 118°13'0 0.0
2015-Oct-15 04:29N 33°44' W 118°13'0 0.0
2015-Oct-15 03:32N 33°44' W 118°13'0 0.0
2015-Oct-15 02:29N 33°44' W 118°13'0 0.0
2015-Oct-15 01:32N 33°44' W 118°13'0 0.0
2015-Oct-15 01:14N 33°44' W 118°13'0 0.0
2015-Oct-15 00:32N 33°44' W 118°13'0 0.0
2015-Oct-14 23:32N 33°44' W 118°13'0 0.0
2015-Oct-14 22:32N 33°44' W 118°13'0 0.0
2015-Oct-14 21:32N 33°44' W 118°13'0 0.0
2015-Oct-14 20:32N 33°44' W 118°13'0 0.1
2015-Oct-14 19:32N 33°44' W 118°13'2 0.1
2015-Oct-14 04:16N 33°45' W 118°13'0 0.0
2015-Oct-14 03:33N 33°45' W 118°13'3 2.9
2015-Oct-14 02:27N 33°44' W 118°10'0 0.0
2015-Oct-14 01:33N 33°44' W 118°10'0 0.0
2015-Oct-14 00:33N 33°44' W 118°10'0 0.0
2015-Oct-13 23:33N 33°44' W 118°10'0 0.0
2015-Oct-13 22:27N 33°44' W 118°10'0 0.0
2015-Oct-13 21:30N 33°44' W 118°10'0 0.1
2015-Oct-13 20:30N 33°44' W 118°10'0 0.0
2015-Oct-13 19:18N 33°44' W 118°10'0 0.1
2015-Oct-13 18:33N 33°44' W 118°10'0 0.0
2015-Oct-13 11:24N 33°44' W 118°10'0 0.0
2015-Oct-13 10:30N 33°44' W 118°10'0 0.0
2015-Oct-13 09:33N 33°44' W 118°10'0 0.0
2015-Oct-13 08:33N 33°44' W 118°10'0 0.1
2015-Oct-13 07:33N 33°44' W 118°10'0 0.0
2015-Oct-13 06:33N 33°44' W 118°10'0 0.0
2015-Oct-13 05:30N 33°44' W 118°10'0 0.0
2015-Oct-12 20:06N 33°44' W 118°10'0 0.0
2015-Oct-12 19:27N 33°44' W 118°10'0 0.0
2015-Oct-12 18:33N 33°44' W 118°10'0 0.0
2015-Oct-12 17:33N 33°44' W 118°10'0 0.1
2015-Oct-12 16:33N 33°44' W 118°10'0 0.1
2015-Oct-12 15:21N 33°44' W 118°10'0 0.1
2015-Oct-12 14:33N 33°44' W 118°10'0 0.0
2015-Oct-12 11:27N 33°44' W 118°10'0 0.1
2015-Oct-12 10:30N 33°44' W 118°10'0 0.1
2015-Oct-12 09:33N 33°44' W 118°10'0 0.0
2015-Oct-12 08:33N 33°44' W 118°10'0 0.0
2015-Oct-12 07:33N 33°44' W 118°10'0 0.0
2015-Oct-12 06:33N 33°44' W 118°10'0 0.1
2015-Oct-12 05:33N 33°44' W 118°10'0 0.2
2015-Oct-12 04:33N 33°44' W 118°10'0 0.1
2015-Oct-12 03:33N 33°44' W 118°10'0 0.0
2015-Oct-12 02:27N 33°44' W 118°10'0 0.0
2015-Oct-12 01:33N 33°44' W 118°10'0 0.0
2015-Oct-12 00:30N 33°44' W 118°10'0 0.0
2015-Oct-11 23:33N 33°44' W 118°10'0 0.0
2015-Oct-11 22:33N 33°44' W 118°10'0 0.0
2015-Oct-11 21:33N 33°44' W 118°10'0 0.1
2015-Oct-11 20:33N 33°44' W 118°10'0 0.0
2015-Oct-11 19:33N 33°44' W 118°10'0 0.1
2015-Oct-11 18:33N 33°44' W 118°10'0 0.1
2015-Oct-11 17:33N 33°44' W 118°10'0 0.1
2015-Oct-11 16:33N 33°44' W 118°10'0 0.1
2015-Oct-11 15:33N 33°44' W 118°10'0 0.1
2015-Oct-11 14:33N 33°44' W 118°10'0 0.1
2015-Oct-11 13:33N 33°44' W 118°10'0 0.0
2015-Oct-11 12:33N 33°44' W 118°10'0 0.1
2015-Oct-11 11:33N 33°44' W 118°10'0 0.0
2015-Oct-11 10:33N 33°44' W 118°10'0 0.0
2015-Oct-11 09:33N 33°44' W 118°10'0 0.2
2015-Oct-11 08:33N 33°44' W 118°10'0 0.2
2015-Oct-11 07:34N 33°44' W 118°10'3 0.1
2015-Oct-09 20:10N 33°45' W 118°13'0 0.6
2015-Oct-09 19:33N 33°45' W 118°13'5 4.5
2015-Oct-09 18:33N 33°41' W 118°11'2 2.4
2015-Oct-09 17:32N 33°41' W 118°08'0 0.1
2015-Oct-09 16:32N 33°41' W 118°08'0 0.1
2015-Oct-09 15:32N 33°41' W 118°08'0 0.0
2015-Oct-09 14:33N 33°41' W 118°08'0 0.0
2015-Oct-09 13:32N 33°41' W 118°08'0 0.0
2015-Oct-09 12:33N 33°41' W 118°08'0 0.1
2015-Oct-09 11:32N 33°41' W 118°08'0 0.1
2015-Oct-09 10:32N 33°41' W 118°08'0 0.1
2015-Oct-09 09:32N 33°41' W 118°08'0 0.0
2015-Oct-09 08:32N 33°41' W 118°08'0 0.1
2015-Oct-09 07:29N 33°41' W 118°08'0 0.1
2015-Oct-09 06:29N 33°41' W 118°08'0 0.1
2015-Oct-09 05:32N 33°41' W 118°08'0 0.0
2015-Oct-09 04:32N 33°41' W 118°08'0 0.0
2015-Oct-09 03:32N 33°41' W 118°08'0 0.0
2015-Oct-09 02:32N 33°41' W 118°08'0 0.0
2015-Oct-09 01:32N 33°41' W 118°08'0 0.0
2015-Oct-09 00:32N 33°41' W 118°08'0 0.0
2015-Oct-08 23:29N 33°41' W 118°08'0 0.0
2015-Oct-08 22:32N 33°41' W 118°08'0 0.1
2015-Oct-08 21:32N 33°41' W 118°08'0 0.1
2015-Oct-08 20:32N 33°41' W 118°08'0 0.0
2015-Oct-08 19:32N 33°41' W 118°08'0 0.0
2015-Oct-08 18:32N 33°41' W 118°08'0 0.0
2015-Oct-08 17:32N 33°41' W 118°08'0 0.1
2015-Oct-08 16:32N 33°41' W 118°08'0 0.1
2015-Oct-08 15:32N 33°41' W 118°08'0 0.1
2015-Oct-08 14:32N 33°41' W 118°08'0 0.0
2015-Oct-08 13:33N 33°41' W 118°08'0 0.0
2015-Oct-08 12:29N 33°41' W 118°08'0 0.1
2015-Oct-08 11:32N 33°41' W 118°08'0 0.0
2015-Oct-08 10:29N 33°41' W 118°08'0 0.1
2015-Oct-08 09:32N 33°41' W 118°08'0 0.1
2015-Oct-08 08:32N 33°41' W 118°08'0 0.1
2015-Oct-08 07:32N 33°41' W 118°08'0 0.0
2015-Oct-08 05:11N 33°41' W 118°08'0 0.1
2015-Oct-08 04:32N 33°41' W 118°08'0 0.0
2015-Oct-08 03:29N 33°41' W 118°08'0 0.0
2015-Oct-08 02:32N 33°41' W 118°08'0 0.0
2015-Oct-08 01:29N 33°41' W 118°08'0 0.0
2015-Oct-08 00:32N 33°41' W 118°08'0 0.0
2015-Oct-07 23:11N 33°41' W 118°08'0 0.0
2015-Oct-07 22:29N 33°41' W 118°08'0 0.0
2015-Oct-07 21:32N 33°41' W 118°08'0 0.0
2015-Oct-07 20:29N 33°41' W 118°08'0 0.1
2015-Oct-07 19:33N 33°41' W 118°08'0 0.1
2015-Oct-07 17:08N 33°41' W 118°08'0 0.0
2015-Oct-07 16:29N 33°41' W 118°08'0 0.0
2015-Oct-07 14:29N 33°41' W 118°08'0 0.0
2015-Oct-07 13:30N 33°41' W 118°08'0 0.0
2015-Oct-07 12:29N 33°41' W 118°08'  
Track history (hours):
 
Tides and Currents Weather Stations Pressure Air Temp Water Temp Dewpoint Dewpoint Depression Visibility Wind Speed Wind Dir Waves Ship Positions

Princimar Pride

Last reported at 2015-Oct-15 05:32 UTC. Time now 2016-Jul-28 00:52 UTC.
Position N 33°44' W 118°13'.
Warning: this ship's position is months out of date.

Length 274 m; draft 9 m.

Type: Ship. MMSI: 538004509.

Date/timePositionNaut miles runAvg speedWind from/ knotsBaromVisibWave heightAir tempDewpointWater temp
2015-Oct-15 05:32N 33°44' W 118°13'0 0.0
2015-Oct-15 04:29N 33°44' W 118°13'0 0.0
2015-Oct-15 03:32N 33°44' W 118°13'0 0.0
2015-Oct-15 02:29N 33°44' W 118°13'0 0.0
2015-Oct-15 01:32N 33°44' W 118°13'0 0.0
2015-Oct-15 01:14N 33°44' W 118°13'0 0.0
2015-Oct-15 00:32N 33°44' W 118°13'0 0.0
2015-Oct-14 23:32N 33°44' W 118°13'0 0.0
2015-Oct-14 22:32N 33°44' W 118°13'0 0.0
2015-Oct-14 21:32N 33°44' W 118°13'0 0.0
2015-Oct-14 20:32N 33°44' W 118°13'0 0.1
2015-Oct-14 19:32N 33°44' W 118°13'2 0.1
2015-Oct-14 04:16N 33°45' W 118°13'0 0.0
2015-Oct-14 03:33N 33°45' W 118°13'3 2.9
2015-Oct-14 02:27N 33°44' W 118°10'0 0.0
2015-Oct-14 01:33N 33°44' W 118°10'0 0.0
2015-Oct-14 00:33N 33°44' W 118°10'0 0.0
2015-Oct-13 23:33N 33°44' W 118°10'0 0.0
2015-Oct-13 22:27N 33°44' W 118°10'0 0.0
2015-Oct-13 21:30N 33°44' W 118°10'0 0.1
2015-Oct-13 20:30N 33°44' W 118°10'0 0.0
2015-Oct-13 19:18N 33°44' W 118°10'0 0.1
2015-Oct-13 18:33N 33°44' W 118°10'0 0.0
2015-Oct-13 11:24N 33°44' W 118°10'0 0.0
2015-Oct-13 10:30N 33°44' W 118°10'0 0.0
2015-Oct-13 09:33N 33°44' W 118°10'0 0.0
2015-Oct-13 08:33N 33°44' W 118°10'0 0.1
2015-Oct-13 07:33N 33°44' W 118°10'0 0.0
2015-Oct-13 06:33N 33°44' W 118°10'0 0.0
2015-Oct-13 05:30N 33°44' W 118°10'0 0.0
2015-Oct-12 20:06N 33°44' W 118°10'0 0.0
2015-Oct-12 19:27N 33°44' W 118°10'0 0.0
2015-Oct-12 18:33N 33°44' W 118°10'0 0.0
2015-Oct-12 17:33N 33°44' W 118°10'0 0.1
2015-Oct-12 16:33N 33°44' W 118°10'0 0.1
2015-Oct-12 15:21N 33°44' W 118°10'0 0.1
2015-Oct-12 14:33N 33°44' W 118°10'0 0.0
2015-Oct-12 11:27N 33°44' W 118°10'0 0.1
2015-Oct-12 10:30N 33°44' W 118°10'0 0.1
2015-Oct-12 09:33N 33°44' W 118°10'0 0.0
2015-Oct-12 08:33N 33°44' W 118°10'0 0.0
2015-Oct-12 07:33N 33°44' W 118°10'0 0.0
2015-Oct-12 06:33N 33°44' W 118°10'0 0.1
2015-Oct-12 05:33N 33°44' W 118°10'0 0.2
2015-Oct-12 04:33N 33°44' W 118°10'0 0.1
2015-Oct-12 03:33N 33°44' W 118°10'0 0.0
2015-Oct-12 02:27N 33°44' W 118°10'0 0.0
2015-Oct-12 01:33N 33°44' W 118°10'0 0.0
2015-Oct-12 00:30N 33°44' W 118°10'0 0.0
2015-Oct-11 23:33N 33°44' W 118°10'0 0.0
2015-Oct-11 22:33N 33°44' W 118°10'0 0.0
2015-Oct-11 21:33N 33°44' W 118°10'0 0.1
2015-Oct-11 20:33N 33°44' W 118°10'0 0.0
2015-Oct-11 19:33N 33°44' W 118°10'0 0.1
2015-Oct-11 18:33N 33°44' W 118°10'0 0.1
2015-Oct-11 17:33N 33°44' W 118°10'0 0.1
2015-Oct-11 16:33N 33°44' W 118°10'0 0.1
2015-Oct-11 15:33N 33°44' W 118°10'0 0.1
2015-Oct-11 14:33N 33°44' W 118°10'0 0.1
2015-Oct-11 13:33N 33°44' W 118°10'0 0.0
2015-Oct-11 12:33N 33°44' W 118°10'0 0.1
2015-Oct-11 11:33N 33°44' W 118°10'0 0.0
2015-Oct-11 10:33N 33°44' W 118°10'0 0.0
2015-Oct-11 09:33N 33°44' W 118°10'0 0.2
2015-Oct-11 08:33N 33°44' W 118°10'0 0.2
2015-Oct-11 07:34N 33°44' W 118°10'3 0.1
2015-Oct-09 20:10N 33°45' W 118°13'0 0.6
2015-Oct-09 19:33N 33°45' W 118°13'5 4.5
2015-Oct-09 18:33N 33°41' W 118°11'2 2.4
2015-Oct-09 17:32N 33°41' W 118°08'0 0.1
2015-Oct-09 16:32N 33°41' W 118°08'0 0.1
2015-Oct-09 15:32N 33°41' W 118°08'0 0.0
2015-Oct-09 14:33N 33°41' W 118°08'0 0.0
2015-Oct-09 13:32N 33°41' W 118°08'0 0.0
2015-Oct-09 12:33N 33°41' W 118°08'0 0.1
2015-Oct-09 11:32N 33°41' W 118°08'0 0.1
2015-Oct-09 10:32N 33°41' W 118°08'0 0.1
2015-Oct-09 09:32N 33°41' W 118°08'0 0.0
2015-Oct-09 08:32N 33°41' W 118°08'0 0.1
2015-Oct-09 07:29N 33°41' W 118°08'0 0.1
2015-Oct-09 06:29N 33°41' W 118°08'0 0.1
2015-Oct-09 05:32N 33°41' W 118°08'0 0.0
2015-Oct-09 04:32N 33°41' W 118°08'0 0.0
2015-Oct-09 03:32N 33°41' W 118°08'0 0.0
2015-Oct-09 02:32N 33°41' W 118°08'0 0.0
2015-Oct-09 01:32N 33°41' W 118°08'0 0.0
2015-Oct-09 00:32N 33°41' W 118°08'0 0.0
2015-Oct-08 23:29N 33°41' W 118°08'0 0.0
2015-Oct-08 22:32N 33°41' W 118°08'0 0.1
2015-Oct-08 21:32N 33°41' W 118°08'0 0.1
2015-Oct-08 20:32N 33°41' W 118°08'0 0.0
2015-Oct-08 19:32N 33°41' W 118°08'0 0.0
2015-Oct-08 18:32N 33°41' W 118°08'0 0.0
2015-Oct-08 17:32N 33°41' W 118°08'0 0.1
2015-Oct-08 16:32N 33°41' W 118°08'0 0.1
2015-Oct-08 15:32N 33°41' W 118°08'0 0.1
2015-Oct-08 14:32N 33°41' W 118°08'0 0.0
2015-Oct-08 13:33N 33°41' W 118°08'0 0.0
2015-Oct-08 12:29N 33°41' W 118°08'0 0.1
2015-Oct-08 11:32N 33°41' W 118°08'0 0.0
2015-Oct-08 10:29N 33°41' W 118°08'0 0.1
2015-Oct-08 09:32N 33°41' W 118°08'0 0.1
2015-Oct-08 08:32N 33°41' W 118°08'0 0.1
2015-Oct-08 07:32N 33°41' W 118°08'0 0.0
2015-Oct-08 05:11N 33°41' W 118°08'0 0.1
2015-Oct-08 04:32N 33°41' W 118°08'0 0.0
2015-Oct-08 03:29N 33°41' W 118°08'0 0.0
2015-Oct-08 02:32N 33°41' W 118°08'0 0.0
2015-Oct-08 01:29N 33°41' W 118°08'0 0.0
2015-Oct-08 00:32N 33°41' W 118°08'0 0.0
2015-Oct-07 23:11N 33°41' W 118°08'0 0.0
2015-Oct-07 22:29N 33°41' W 118°08'0 0.0
2015-Oct-07 21:32N 33°41' W 118°08'0 0.0
2015-Oct-07 20:29N 33°41' W 118°08'0 0.1
2015-Oct-07 19:33N 33°41' W 118°08'0 0.1
2015-Oct-07 17:08N 33°41' W 118°08'0 0.0
2015-Oct-07 16:29N 33°41' W 118°08'0 0.0
2015-Oct-07 14:29N 33°41' W 118°08'0 0.0
2015-Oct-07 13:30N 33°41' W 118°08'0 0.0
2015-Oct-07 12:29N 33°41' W 118°08'  

Dump ship's entire track history